sensor_id;sensor_type;location;lat;lon;timestamp;P1;durP1;ratioP1;P2;durP2;ratioP2
55493;SDS011;41355;50.390;19.096;2023-01-28T00:00:05;47.70;;;13.90;;
55493;SDS011;41355;50.390;19.096;2023-01-28T00:02:34;58.45;;;15.57;;
55493;SDS011;41355;50.390;19.096;2023-01-28T00:05:00;42.47;;;15.07;;
55493;SDS011;41355;50.390;19.096;2023-01-28T00:07:26;46.95;;;12.57;;
55493;SDS011;41355;50.390;19.096;2023-01-28T00:09:52;49.63;;;15.70;;
55493;SDS011;41355;50.390;19.096;2023-01-28T00:12:18;43.03;;;13.13;;
55493;SDS011;41355;50.390;19.096;2023-01-28T00:14:44;49.50;;;13.93;;
55493;SDS011;41355;50.390;19.096;2023-01-28T00:17:12;49.67;;;14.15;;
55493;SDS011;41355;50.390;19.096;2023-01-28T00:19:38;56.67;;;15.35;;
55493;SDS011;41355;50.390;19.096;2023-01-28T00:22:04;59.92;;;16.15;;
55493;SDS011;41355;50.390;19.096;2023-01-28T00:24:30;52.00;;;16.15;;
55493;SDS011;41355;50.390;19.096;2023-01-28T00:26:56;46.58;;;13.45;;
55493;SDS011;41355;50.390;19.096;2023-01-28T00:29:22;49.83;;;14.60;;
55493;SDS011;41355;50.390;19.096;2023-01-28T00:31:48;62.22;;;16.02;;
55493;SDS011;41355;50.390;19.096;2023-01-28T00:34:14;51.67;;;14.60;;
55493;SDS011;41355;50.390;19.096;2023-01-28T00:36:41;54.22;;;14.45;;
55493;SDS011;41355;50.390;19.096;2023-01-28T00:39:09;47.90;;;14.75;;
55493;SDS011;41355;50.390;19.096;2023-01-28T00:41:36;45.95;;;15.50;;
55493;SDS011;41355;50.390;19.096;2023-01-28T00:44:02;41.22;;;13.60;;
55493;SDS011;41355;50.390;19.096;2023-01-28T00:46:28;38.17;;;13.05;;
55493;SDS011;41355;50.390;19.096;2023-01-28T00:48:54;44.42;;;13.80;;
55493;SDS011;41355;50.390;19.096;2023-01-28T00:51:21;41.72;;;12.80;;
55493;SDS011;41355;50.390;19.096;2023-01-28T00:53:47;45.13;;;12.57;;
55493;SDS011;41355;50.390;19.096;2023-01-28T00:56:14;42.90;;;11.45;;
55493;SDS011;41355;50.390;19.096;2023-01-28T00:58:40;44.45;;;13.57;;
55493;SDS011;41355;50.390;19.096;2023-01-28T01:01:11;40.17;;;12.85;;
55493;SDS011;41355;50.390;19.096;2023-01-28T01:03:38;44.05;;;13.05;;
55493;SDS011;41355;50.390;19.096;2023-01-28T01:06:08;37.90;;;11.38;;
55493;SDS011;41355;50.390;19.096;2023-01-28T01:08:35;41.90;;;12.27;;
55493;SDS011;41355;50.390;19.096;2023-01-28T01:11:04;44.20;;;13.98;;
55493;SDS011;41355;50.390;19.096;2023-01-28T01:13:31;49.70;;;14.18;;
55493;SDS011;41355;50.390;19.096;2023-01-28T01:16:02;36.05;;;10.95;;
55493;SDS011;41355;50.390;19.096;2023-01-28T01:18:29;38.97;;;11.93;;
55493;SDS011;41355;50.390;19.096;2023-01-28T01:20:55;39.05;;;12.18;;
55493;SDS011;41355;50.390;19.096;2023-01-28T01:23:26;37.67;;;11.25;;
55493;SDS011;41355;50.390;19.096;2023-01-28T01:25:52;45.15;;;12.88;;
55493;SDS011;41355;50.390;19.096;2023-01-28T01:28:18;41.00;;;11.40;;
55493;SDS011;41355;50.390;19.096;2023-01-28T01:30:45;44.55;;;13.18;;
55493;SDS011;41355;50.390;19.096;2023-01-28T01:33:11;43.55;;;12.75;;
55493;SDS011;41355;50.390;19.096;2023-01-28T01:35:37;40.25;;;13.32;;
55493;SDS011;41355;50.390;19.096;2023-01-28T01:38:03;39.97;;;10.57;;
55493;SDS011;41355;50.390;19.096;2023-01-28T01:40:29;49.83;;;14.43;;
55493;SDS011;41355;50.390;19.096;2023-01-28T01:42:55;35.85;;;11.32;;
55493;SDS011;41355;50.390;19.096;2023-01-28T01:45:21;53.90;;;13.05;;
55493;SDS011;41355;50.390;19.096;2023-01-28T01:47:54;34.83;;;10.25;;
55493;SDS011;41355;50.390;19.096;2023-01-28T01:52:51;25.88;;;9.77;;
55493;SDS011;41355;50.390;19.096;2023-01-28T01:55:20;41.05;;;11.50;;
55493;SDS011;41355;50.390;19.096;2023-01-28T01:57:46;38.83;;;11.57;;
55493;SDS011;41355;50.390;19.096;2023-01-28T02:00:14;30.52;;;8.13;;
55493;SDS011;41355;50.390;19.096;2023-01-28T02:02:42;29.08;;;10.07;;
55493;SDS011;41355;50.390;19.096;2023-01-28T02:05:09;23.83;;;7.63;;
55493;SDS011;41355;50.390;19.096;2023-01-28T02:07:35;25.00;;;7.15;;
55493;SDS011;41355;50.390;19.096;2023-01-28T02:10:02;22.42;;;8.65;;
55493;SDS011;41355;50.390;19.096;2023-01-28T02:12:30;29.15;;;9.20;;
55493;SDS011;41355;50.390;19.096;2023-01-28T02:15:03;25.63;;;8.50;;
55493;SDS011;41355;50.390;19.096;2023-01-28T02:17:31;21.75;;;6.22;;
55493;SDS011;41355;50.390;19.096;2023-01-28T02:20:18;31.30;;;9.55;;
55493;SDS011;41355;50.390;19.096;2023-01-28T02:30:19;16.92;;;5.40;;
55493;SDS011;41355;50.390;19.096;2023-01-28T02:32:50;27.35;;;8.05;;
55493;SDS011;41355;50.390;19.096;2023-01-28T02:35:23;26.17;;;7.75;;
55493;SDS011;41355;50.390;19.096;2023-01-28T02:37:52;34.83;;;8.57;;
55493;SDS011;41355;50.390;19.096;2023-01-28T02:40:30;26.92;;;8.32;;
55493;SDS011;41355;50.390;19.096;2023-01-28T02:42:58;29.90;;;9.50;;
55493;SDS011;41355;50.390;19.096;2023-01-28T02:45:25;25.02;;;7.60;;
55493;SDS011;41355;50.390;19.096;2023-01-28T02:48:15;30.27;;;8.48;;
55493;SDS011;41355;50.390;19.096;2023-01-28T02:50:47;33.42;;;9.40;;
55493;SDS011;41355;50.390;19.096;2023-01-28T02:53:18;28.05;;;8.80;;
55493;SDS011;41355;50.390;19.096;2023-01-28T03:01:22;33.42;;;10.48;;
55493;SDS011;41355;50.390;19.096;2023-01-28T03:06:16;28.42;;;8.13;;
55493;SDS011;41355;50.390;19.096;2023-01-28T03:08:46;29.13;;;8.45;;
55493;SDS011;41355;50.390;19.096;2023-01-28T03:11:32;28.75;;;9.05;;
55493;SDS011;41355;50.390;19.096;2023-01-28T03:14:17;21.73;;;6.38;;
55493;SDS011;41355;50.390;19.096;2023-01-28T03:17:03;25.23;;;9.45;;
55493;SDS011;41355;50.390;19.096;2023-01-28T03:19:50;14.00;;;5.32;;
55493;SDS011;41355;50.390;19.096;2023-01-28T03:22:36;29.08;;;8.95;;
55493;SDS011;41355;50.390;19.096;2023-01-28T03:25:22;29.35;;;8.98;;
55493;SDS011;41355;50.390;19.096;2023-01-28T03:28:09;30.10;;;8.95;;
55493;SDS011;41355;50.390;19.096;2023-01-28T03:30:58;27.60;;;8.60;;
55493;SDS011;41355;50.390;19.096;2023-01-28T03:33:46;23.95;;;7.28;;
55493;SDS011;41355;50.390;19.096;2023-01-28T03:36:31;23.17;;;7.72;;
55493;SDS011;41355;50.390;19.096;2023-01-28T03:39:18;19.98;;;6.68;;
55493;SDS011;41355;50.390;19.096;2023-01-28T03:42:04;17.38;;;6.57;;
55493;SDS011;41355;50.390;19.096;2023-01-28T03:44:31;23.65;;;6.88;;
55493;SDS011;41355;50.390;19.096;2023-01-28T03:47:16;24.08;;;8.48;;
55493;SDS011;41355;50.390;19.096;2023-01-28T03:49:43;29.50;;;8.68;;
55493;SDS011;41355;50.390;19.096;2023-01-28T03:52:25;27.13;;;8.70;;
55493;SDS011;41355;50.390;19.096;2023-01-28T03:54:51;22.27;;;8.18;;
55493;SDS011;41355;50.390;19.096;2023-01-28T03:57:21;23.00;;;7.28;;
55493;SDS011;41355;50.390;19.096;2023-01-28T03:59:47;19.25;;;6.55;;
55493;SDS011;41355;50.390;19.096;2023-01-28T04:02:14;17.63;;;5.32;;
55493;SDS011;41355;50.390;19.096;2023-01-28T04:04:40;20.27;;;6.80;;
55493;SDS011;41355;50.390;19.096;2023-01-28T04:07:07;24.48;;;6.00;;
55493;SDS011;41355;50.390;19.096;2023-01-28T04:09:34;16.60;;;6.03;;
55493;SDS011;41355;50.390;19.096;2023-01-28T04:12:00;22.40;;;8.18;;
55493;SDS011;41355;50.390;19.096;2023-01-28T04:14:26;18.13;;;6.63;;
55493;SDS011;41355;50.390;19.096;2023-01-28T04:16:52;12.57;;;5.05;;
55493;SDS011;41355;50.390;19.096;2023-01-28T04:19:18;12.80;;;4.80;;
55493;SDS011;41355;50.390;19.096;2023-01-28T04:21:45;15.73;;;6.35;;
55493;SDS011;41355;50.390;19.096;2023-01-28T04:24:11;24.77;;;7.07;;
55493;SDS011;41355;50.390;19.096;2023-01-28T04:26:38;23.33;;;7.57;;
55493;SDS011;41355;50.390;19.096;2023-01-28T04:29:04;17.40;;;5.57;;
55493;SDS011;41355;50.390;19.096;2023-01-28T04:31:30;20.77;;;7.03;;
55493;SDS011;41355;50.390;19.096;2023-01-28T04:33:56;14.65;;;4.30;;
55493;SDS011;41355;50.390;19.096;2023-01-28T04:36:22;18.17;;;6.72;;
55493;SDS011;41355;50.390;19.096;2023-01-28T04:38:48;17.13;;;7.00;;
55493;SDS011;41355;50.390;19.096;2023-01-28T04:41:14;14.65;;;5.47;;
55493;SDS011;41355;50.390;19.096;2023-01-28T04:43:40;20.50;;;5.72;;
55493;SDS011;41355;50.390;19.096;2023-01-28T04:46:07;15.00;;;5.65;;
55493;SDS011;41355;50.390;19.096;2023-01-28T04:48:33;24.88;;;7.25;;
55493;SDS011;41355;50.390;19.096;2023-01-28T04:51:00;18.52;;;5.28;;
55493;SDS011;41355;50.390;19.096;2023-01-28T04:53:26;13.85;;;4.95;;
55493;SDS011;41355;50.390;19.096;2023-01-28T04:55:52;19.08;;;6.40;;
55493;SDS011;41355;50.390;19.096;2023-01-28T04:58:18;22.88;;;7.38;;
55493;SDS011;41355;50.390;19.096;2023-01-28T05:00:44;15.25;;;6.20;;
55493;SDS011;41355;50.390;19.096;2023-01-28T05:03:10;19.33;;;6.40;;
55493;SDS011;41355;50.390;19.096;2023-01-28T05:05:36;16.48;;;5.57;;
55493;SDS011;41355;50.390;19.096;2023-01-28T05:08:02;15.52;;;6.78;;
55493;SDS011;41355;50.390;19.096;2023-01-28T05:10:29;19.45;;;6.95;;
55493;SDS011;41355;50.390;19.096;2023-01-28T05:12:55;14.23;;;6.25;;
55493;SDS011;41355;50.390;19.096;2023-01-28T05:15:21;18.38;;;6.13;;
55493;SDS011;41355;50.390;19.096;2023-01-28T05:17:47;15.38;;;5.88;;
55493;SDS011;41355;50.390;19.096;2023-01-28T05:20:13;24.60;;;7.97;;
55493;SDS011;41355;50.390;19.096;2023-01-28T05:22:40;19.80;;;6.72;;
55493;SDS011;41355;50.390;19.096;2023-01-28T05:25:06;23.35;;;8.63;;
55493;SDS011;41355;50.390;19.096;2023-01-28T05:27:32;22.67;;;9.07;;
55493;SDS011;41355;50.390;19.096;2023-01-28T05:29:59;25.80;;;8.50;;
55493;SDS011;41355;50.390;19.096;2023-01-28T05:32:25;15.98;;;6.13;;
55493;SDS011;41355;50.390;19.096;2023-01-28T05:34:51;21.05;;;6.72;;
55493;SDS011;41355;50.390;19.096;2023-01-28T05:37:17;17.83;;;7.22;;
55493;SDS011;41355;50.390;19.096;2023-01-28T05:39:43;31.08;;;8.82;;
55493;SDS011;41355;50.390;19.096;2023-01-28T05:42:09;22.55;;;7.72;;
55493;SDS011;41355;50.390;19.096;2023-01-28T05:44:35;31.20;;;8.30;;
55493;SDS011;41355;50.390;19.096;2023-01-28T05:47:02;28.17;;;8.55;;
55493;SDS011;41355;50.390;19.096;2023-01-28T05:49:28;25.13;;;7.82;;
55493;SDS011;41355;50.390;19.096;2023-01-28T05:51:54;23.60;;;6.85;;
55493;SDS011;41355;50.390;19.096;2023-01-28T05:54:20;20.10;;;7.38;;
55493;SDS011;41355;50.390;19.096;2023-01-28T05:56:46;25.27;;;8.05;;
55493;SDS011;41355;50.390;19.096;2023-01-28T05:59:12;19.00;;;6.55;;
55493;SDS011;41355;50.390;19.096;2023-01-28T06:01:39;26.67;;;8.43;;
55493;SDS011;41355;50.390;19.096;2023-01-28T06:04:05;20.00;;;7.70;;
55493;SDS011;41355;50.390;19.096;2023-01-28T06:06:31;28.30;;;9.18;;
55493;SDS011;41355;50.390;19.096;2023-01-28T06:08:57;28.02;;;8.20;;
55493;SDS011;41355;50.390;19.096;2023-01-28T06:11:23;35.20;;;9.95;;
55493;SDS011;41355;50.390;19.096;2023-01-28T06:13:49;23.77;;;9.45;;
55493;SDS011;41355;50.390;19.096;2023-01-28T06:16:15;26.58;;;7.22;;
55493;SDS011;41355;50.390;19.096;2023-01-28T06:18:41;25.15;;;10.13;;
55493;SDS011;41355;50.390;19.096;2023-01-28T06:21:08;20.58;;;7.57;;
55493;SDS011;41355;50.390;19.096;2023-01-28T06:23:34;22.15;;;8.23;;
55493;SDS011;41355;50.390;19.096;2023-01-28T06:26:00;25.73;;;9.05;;
55493;SDS011;41355;50.390;19.096;2023-01-28T06:28:26;22.27;;;7.70;;
55493;SDS011;41355;50.390;19.096;2023-01-28T06:30:53;22.55;;;8.50;;
55493;SDS011;41355;50.390;19.096;2023-01-28T06:33:19;19.42;;;6.78;;
55493;SDS011;41355;50.390;19.096;2023-01-28T06:35:46;21.60;;;7.18;;
55493;SDS011;41355;50.390;19.096;2023-01-28T06:38:12;18.90;;;5.75;;
55493;SDS011;41355;50.390;19.096;2023-01-28T06:40:39;18.73;;;4.53;;
55493;SDS011;41355;50.390;19.096;2023-01-28T06:43:05;22.70;;;7.80;;
55493;SDS011;41355;50.390;19.096;2023-01-28T06:45:31;37.95;;;7.55;;
55493;SDS011;41355;50.390;19.096;2023-01-28T06:47:58;24.50;;;6.85;;
55493;SDS011;41355;50.390;19.096;2023-01-28T06:50:24;28.27;;;8.55;;
55493;SDS011;41355;50.390;19.096;2023-01-28T06:52:50;27.45;;;8.02;;
55493;SDS011;41355;50.390;19.096;2023-01-28T06:55:17;24.80;;;7.63;;
55493;SDS011;41355;50.390;19.096;2023-01-28T06:57:43;23.38;;;6.75;;
55493;SDS011;41355;50.390;19.096;2023-01-28T07:00:10;19.27;;;6.57;;
55493;SDS011;41355;50.390;19.096;2023-01-28T07:02:37;22.58;;;7.07;;
55493;SDS011;41355;50.390;19.096;2023-01-28T07:05:03;25.35;;;8.48;;
55493;SDS011;41355;50.390;19.096;2023-01-28T07:07:30;21.95;;;7.53;;
55493;SDS011;41355;50.390;19.096;2023-01-28T07:09:56;24.63;;;8.38;;
55493;SDS011;41355;50.390;19.096;2023-01-28T07:12:22;24.27;;;7.82;;
55493;SDS011;41355;50.390;19.096;2023-01-28T07:14:48;30.20;;;9.80;;
55493;SDS011;41355;50.390;19.096;2023-01-28T07:17:14;27.73;;;8.18;;
55493;SDS011;41355;50.390;19.096;2023-01-28T07:19:40;23.13;;;7.85;;
55493;SDS011;41355;50.390;19.096;2023-01-28T07:22:06;26.63;;;8.65;;
55493;SDS011;41355;50.390;19.096;2023-01-28T07:24:32;27.52;;;9.05;;
55493;SDS011;41355;50.390;19.096;2023-01-28T07:26:59;23.73;;;7.32;;
55493;SDS011;41355;50.390;19.096;2023-01-28T07:29:25;24.85;;;8.00;;
55493;SDS011;41355;50.390;19.096;2023-01-28T07:31:51;22.13;;;7.47;;
55493;SDS011;41355;50.390;19.096;2023-01-28T07:34:17;25.70;;;8.63;;
55493;SDS011;41355;50.390;19.096;2023-01-28T07:36:43;25.25;;;9.10;;
55493;SDS011;41355;50.390;19.096;2023-01-28T07:39:09;28.52;;;10.00;;
55493;SDS011;41355;50.390;19.096;2023-01-28T07:41:35;27.45;;;8.90;;
55493;SDS011;41355;50.390;19.096;2023-01-28T07:44:01;34.47;;;9.73;;
55493;SDS011;41355;50.390;19.096;2023-01-28T07:46:27;17.90;;;6.18;;
55493;SDS011;41355;50.390;19.096;2023-01-28T07:48:53;30.20;;;9.43;;
55493;SDS011;41355;50.390;19.096;2023-01-28T07:51:19;51.97;;;18.80;;
55493;SDS011;41355;50.390;19.096;2023-01-28T07:53:45;29.33;;;9.68;;
55493;SDS011;41355;50.390;19.096;2023-01-28T07:56:11;21.45;;;7.30;;
55493;SDS011;41355;50.390;19.096;2023-01-28T07:58:37;29.10;;;7.40;;
55493;SDS011;41355;50.390;19.096;2023-01-28T08:01:03;22.83;;;8.32;;
55493;SDS011;41355;50.390;19.096;2023-01-28T08:03:29;21.83;;;7.22;;
55493;SDS011;41355;50.390;19.096;2023-01-28T08:05:56;16.38;;;5.70;;
55493;SDS011;41355;50.390;19.096;2023-01-28T08:08:23;21.52;;;8.45;;
55493;SDS011;41355;50.390;19.096;2023-01-28T08:10:49;17.40;;;5.82;;
55493;SDS011;41355;50.390;19.096;2023-01-28T08:13:16;14.80;;;5.18;;
55493;SDS011;41355;50.390;19.096;2023-01-28T08:15:42;19.05;;;6.82;;
55493;SDS011;41355;50.390;19.096;2023-01-28T08:18:09;19.20;;;7.63;;
55493;SDS011;41355;50.390;19.096;2023-01-28T08:20:37;13.82;;;5.00;;
55493;SDS011;41355;50.390;19.096;2023-01-28T08:25:33;19.88;;;7.28;;
55493;SDS011;41355;50.390;19.096;2023-01-28T08:27:59;18.10;;;7.00;;
55493;SDS011;41355;50.390;19.096;2023-01-28T08:30:25;20.63;;;7.68;;
55493;SDS011;41355;50.390;19.096;2023-01-28T08:32:54;24.52;;;9.07;;
55493;SDS011;41355;50.390;19.096;2023-01-28T08:35:23;18.80;;;5.30;;
55493;SDS011;41355;50.390;19.096;2023-01-28T08:37:52;17.17;;;6.35;;
55493;SDS011;41355;50.390;19.096;2023-01-28T08:40:18;17.40;;;5.93;;
55493;SDS011;41355;50.390;19.096;2023-01-28T08:42:45;18.48;;;7.10;;
55493;SDS011;41355;50.390;19.096;2023-01-28T08:45:12;14.48;;;6.07;;
55493;SDS011;41355;50.390;19.096;2023-01-28T08:47:46;13.20;;;5.75;;
55493;SDS011;41355;50.390;19.096;2023-01-28T08:50:12;20.70;;;7.80;;
55493;SDS011;41355;50.390;19.096;2023-01-28T08:52:38;20.52;;;7.10;;
55493;SDS011;41355;50.390;19.096;2023-01-28T08:55:06;25.55;;;8.27;;
55493;SDS011;41355;50.390;19.096;2023-01-28T08:57:32;20.55;;;7.13;;
55493;SDS011;41355;50.390;19.096;2023-01-28T08:59:58;19.20;;;6.63;;
55493;SDS011;41355;50.390;19.096;2023-01-28T09:02:24;24.30;;;7.43;;
55493;SDS011;41355;50.390;19.096;2023-01-28T09:04:50;17.48;;;6.25;;
55493;SDS011;41355;50.390;19.096;2023-01-28T09:07:16;16.70;;;5.25;;
55493;SDS011;41355;50.390;19.096;2023-01-28T09:09:42;22.20;;;7.57;;
55493;SDS011;41355;50.390;19.096;2023-01-28T09:12:08;48.08;;;14.85;;
55493;SDS011;41355;50.390;19.096;2023-01-28T09:14:35;17.35;;;6.50;;
55493;SDS011;41355;50.390;19.096;2023-01-28T09:17:03;30.92;;;9.15;;
55493;SDS011;41355;50.390;19.096;2023-01-28T09:19:29;22.95;;;7.45;;
55493;SDS011;41355;50.390;19.096;2023-01-28T09:21:55;28.98;;;8.57;;
55493;SDS011;41355;50.390;19.096;2023-01-28T09:24:21;21.00;;;7.70;;
55493;SDS011;41355;50.390;19.096;2023-01-28T09:26:47;20.33;;;7.55;;
55493;SDS011;41355;50.390;19.096;2023-01-28T09:29:14;26.55;;;8.20;;
55493;SDS011;41355;50.390;19.096;2023-01-28T09:31:40;20.70;;;6.85;;
55493;SDS011;41355;50.390;19.096;2023-01-28T09:34:07;20.60;;;6.90;;
55493;SDS011;41355;50.390;19.096;2023-01-28T09:36:33;33.78;;;9.98;;
55493;SDS011;41355;50.390;19.096;2023-01-28T09:38:59;24.63;;;7.38;;
55493;SDS011;41355;50.390;19.096;2023-01-28T09:41:27;26.92;;;8.80;;
55493;SDS011;41355;50.390;19.096;2023-01-28T09:46:23;20.08;;;7.10;;
55493;SDS011;41355;50.390;19.096;2023-01-28T09:48:53;18.83;;;6.78;;
55493;SDS011;41355;50.390;19.096;2023-01-28T09:53:48;22.75;;;7.47;;
55493;SDS011;41355;50.390;19.096;2023-01-28T09:56:29;23.25;;;7.55;;
55493;SDS011;41355;50.390;19.096;2023-01-28T09:58:56;26.13;;;8.38;;
55493;SDS011;41355;50.390;19.096;2023-01-28T10:06:38;19.13;;;7.03;;
55493;SDS011;41355;50.390;19.096;2023-01-28T10:19:36;22.23;;;8.82;;
55493;SDS011;41355;50.390;19.096;2023-01-28T10:25:00;19.25;;;6.00;;
55493;SDS011;41355;50.390;19.096;2023-01-28T10:27:30;28.20;;;7.80;;
55493;SDS011;41355;50.390;19.096;2023-01-28T10:29:58;29.83;;;9.82;;
55493;SDS011;41355;50.390;19.096;2023-01-28T10:34:53;15.18;;;5.85;;
55493;SDS011;41355;50.390;19.096;2023-01-28T10:37:20;13.85;;;6.70;;
55493;SDS011;41355;50.390;19.096;2023-01-28T10:39:46;25.58;;;8.00;;
55493;SDS011;41355;50.390;19.096;2023-01-28T10:42:17;27.67;;;8.98;;
55493;SDS011;41355;50.390;19.096;2023-01-28T10:44:45;20.70;;;7.15;;
55493;SDS011;41355;50.390;19.096;2023-01-28T10:47:18;28.52;;;9.05;;
55493;SDS011;41355;50.390;19.096;2023-01-28T10:49:48;22.27;;;8.88;;
55493;SDS011;41355;50.390;19.096;2023-01-28T10:52:16;29.38;;;9.55;;
55493;SDS011;41355;50.390;19.096;2023-01-28T10:54:42;33.42;;;10.32;;
55493;SDS011;41355;50.390;19.096;2023-01-28T10:57:12;39.40;;;11.57;;
55493;SDS011;41355;50.390;19.096;2023-01-28T10:59:39;38.08;;;12.55;;
55493;SDS011;41355;50.390;19.096;2023-01-28T11:02:23;28.27;;;10.15;;
55493;SDS011;41355;50.390;19.096;2023-01-28T11:10:36;28.05;;;9.02;;
55493;SDS011;41355;50.390;19.096;2023-01-28T11:13:05;21.33;;;7.70;;
55493;SDS011;41355;50.390;19.096;2023-01-28T11:15:31;17.75;;;6.88;;
55493;SDS011;41355;50.390;19.096;2023-01-28T11:17:59;30.42;;;9.40;;
55493;SDS011;41355;50.390;19.096;2023-01-28T11:20:27;21.00;;;7.45;;
55493;SDS011;41355;50.390;19.096;2023-01-28T11:22:53;25.48;;;8.77;;
55493;SDS011;41355;50.390;19.096;2023-01-28T11:25:39;18.52;;;7.45;;
55493;SDS011;41355;50.390;19.096;2023-01-28T11:28:13;88.97;;;37.33;;
55493;SDS011;41355;50.390;19.096;2023-01-28T11:30:40;26.92;;;8.93;;
55493;SDS011;41355;50.390;19.096;2023-01-28T11:33:16;24.58;;;8.38;;
55493;SDS011;41355;50.390;19.096;2023-01-28T11:35:51;21.77;;;8.45;;
55493;SDS011;41355;50.390;19.096;2023-01-28T11:38:18;25.48;;;8.35;;
55493;SDS011;41355;50.390;19.096;2023-01-28T11:40:48;19.77;;;7.80;;
55493;SDS011;41355;50.390;19.096;2023-01-28T11:43:15;19.45;;;7.68;;
55493;SDS011;41355;50.390;19.096;2023-01-28T11:45:43;23.92;;;9.40;;
55493;SDS011;41355;50.390;19.096;2023-01-28T11:48:23;21.25;;;7.80;;
55493;SDS011;41355;50.390;19.096;2023-01-28T11:50:59;28.07;;;10.47;;
55493;SDS011;41355;50.390;19.096;2023-01-28T12:17:18;33.60;;;11.40;;
55493;SDS011;41355;50.390;19.096;2023-01-28T12:22:19;36.70;;;12.07;;
55493;SDS011;41355;50.390;19.096;2023-01-28T12:27:24;34.83;;;11.23;;
55493;SDS011;41355;50.390;19.096;2023-01-28T12:32:27;27.27;;;10.82;;
55493;SDS011;41355;50.390;19.096;2023-01-28T12:47:39;35.03;;;11.10;;
55493;SDS011;41355;50.390;19.096;2023-01-28T12:50:13;21.90;;;8.50;;
55493;SDS011;41355;50.390;19.096;2023-01-28T12:52:43;28.77;;;10.05;;
55493;SDS011;41355;50.390;19.096;2023-01-28T12:55:15;34.78;;;10.98;;
55493;SDS011;41355;50.390;19.096;2023-01-28T12:57:43;31.80;;;11.00;;
55493;SDS011;41355;50.390;19.096;2023-01-28T13:05:35;31.15;;;9.73;;
55493;SDS011;41355;50.390;19.096;2023-01-28T13:10:42;28.67;;;10.27;;
55493;SDS011;41355;50.390;19.096;2023-01-28T13:13:14;32.50;;;11.23;;
55493;SDS011;41355;50.390;19.096;2023-01-28T13:15:40;30.98;;;11.38;;
55493;SDS011;41355;50.390;19.096;2023-01-28T13:20:59;25.10;;;8.50;;
55493;SDS011;41355;50.390;19.096;2023-01-28T13:23:39;37.75;;;11.20;;
55493;SDS011;41355;50.390;19.096;2023-01-28T13:26:10;29.45;;;10.63;;
55493;SDS011;41355;50.390;19.096;2023-01-28T13:28:36;34.22;;;10.70;;
55493;SDS011;41355;50.390;19.096;2023-01-28T13:31:04;23.75;;;8.10;;
55493;SDS011;41355;50.390;19.096;2023-01-28T13:33:31;32.58;;;11.00;;
55493;SDS011;41355;50.390;19.096;2023-01-28T13:36:00;36.08;;;11.70;;
55493;SDS011;41355;50.390;19.096;2023-01-28T13:38:26;26.15;;;8.27;;
55493;SDS011;41355;50.390;19.096;2023-01-28T13:40:54;20.77;;;7.30;;
55493;SDS011;41355;50.390;19.096;2023-01-28T13:43:26;33.20;;;10.40;;
55493;SDS011;41355;50.390;19.096;2023-01-28T13:45:56;22.17;;;9.02;;
55493;SDS011;41355;50.390;19.096;2023-01-28T13:50:57;17.88;;;7.00;;
55493;SDS011;41355;50.390;19.096;2023-01-28T13:55:56;16.95;;;5.47;;
55493;SDS011;41355;50.390;19.096;2023-01-28T14:09:05;39.70;;;11.05;;
55493;SDS011;41355;50.390;19.096;2023-01-28T14:16:50;33.08;;;10.77;;
55493;SDS011;41355;50.390;19.096;2023-01-28T14:19:18;26.52;;;8.75;;
55493;SDS011;41355;50.390;19.096;2023-01-28T14:21:46;25.90;;;9.18;;
55493;SDS011;41355;50.390;19.096;2023-01-28T14:24:15;31.92;;;12.68;;
55493;SDS011;41355;50.390;19.096;2023-01-28T14:31:43;40.33;;;12.13;;
55493;SDS011;41355;50.390;19.096;2023-01-28T14:36:52;26.65;;;8.50;;
55493;SDS011;41355;50.390;19.096;2023-01-28T14:39:27;44.40;;;14.88;;
55493;SDS011;41355;50.390;19.096;2023-01-28T14:54:46;30.80;;;10.48;;
55493;SDS011;41355;50.390;19.096;2023-01-28T15:00:15;44.78;;;12.60;;
55493;SDS011;41355;50.390;19.096;2023-01-28T15:02:42;30.20;;;11.10;;
55493;SDS011;41355;50.390;19.096;2023-01-28T15:05:21;49.67;;;14.57;;
55493;SDS011;41355;50.390;19.096;2023-01-28T15:07:47;41.38;;;15.18;;
55493;SDS011;41355;50.390;19.096;2023-01-28T15:10:15;23.83;;;8.88;;
55493;SDS011;41355;50.390;19.096;2023-01-28T15:12:43;40.30;;;13.70;;
55493;SDS011;41355;50.390;19.096;2023-01-28T15:15:17;40.55;;;13.57;;
55493;SDS011;41355;50.390;19.096;2023-01-28T15:17:45;40.67;;;13.93;;
55493;SDS011;41355;50.390;19.096;2023-01-28T15:20:17;44.38;;;15.32;;
55493;SDS011;41355;50.390;19.096;2023-01-28T15:22:43;25.73;;;11.00;;
55493;SDS011;41355;50.390;19.096;2023-01-28T15:25:27;20.92;;;7.07;;
55493;SDS011;41355;50.390;19.096;2023-01-28T15:27:54;28.88;;;11.18;;
55493;SDS011;41355;50.390;19.096;2023-01-28T15:30:24;39.10;;;12.90;;
55493;SDS011;41355;50.390;19.096;2023-01-28T15:33:00;34.45;;;11.02;;
55493;SDS011;41355;50.390;19.096;2023-01-28T15:35:29;41.65;;;10.95;;
55493;SDS011;41355;50.390;19.096;2023-01-28T15:37:55;33.42;;;12.15;;
55493;SDS011;41355;50.390;19.096;2023-01-28T15:40:22;33.33;;;12.48;;
55493;SDS011;41355;50.390;19.096;2023-01-28T15:42:50;40.72;;;12.10;;
55493;SDS011;41355;50.390;19.096;2023-01-28T15:45:19;34.25;;;10.90;;
55493;SDS011;41355;50.390;19.096;2023-01-28T15:47:46;42.75;;;15.18;;
55493;SDS011;41355;50.390;19.096;2023-01-28T15:50:21;35.05;;;11.70;;
55493;SDS011;41355;50.390;19.096;2023-01-28T15:52:48;38.42;;;14.20;;
55493;SDS011;41355;50.390;19.096;2023-01-28T15:55:27;29.70;;;10.27;;
55493;SDS011;41355;50.390;19.096;2023-01-28T15:57:55;54.60;;;17.30;;
55493;SDS011;41355;50.390;19.096;2023-01-28T16:00:22;55.13;;;18.17;;
55493;SDS011;41355;50.390;19.096;2023-01-28T16:02:53;56.15;;;16.83;;
55493;SDS011;41355;50.390;19.096;2023-01-28T16:05:26;33.58;;;10.70;;
55493;SDS011;41355;50.390;19.096;2023-01-28T16:07:53;64.03;;;20.55;;
55493;SDS011;41355;50.390;19.096;2023-01-28T16:10:24;59.13;;;18.27;;
55493;SDS011;41355;50.390;19.096;2023-01-28T16:12:52;33.10;;;11.35;;
55493;SDS011;41355;50.390;19.096;2023-01-28T16:15:19;38.13;;;11.35;;
55493;SDS011;41355;50.390;19.096;2023-01-28T16:17:49;68.18;;;19.08;;
55493;SDS011;41355;50.390;19.096;2023-01-28T16:20:22;54.67;;;13.70;;
55493;SDS011;41355;50.390;19.096;2023-01-28T16:22:49;45.55;;;16.63;;
55493;SDS011;41355;50.390;19.096;2023-01-28T16:25:23;63.25;;;19.45;;
55493;SDS011;41355;50.390;19.096;2023-01-28T16:30:16;13.40;;;5.25;;
55493;SDS011;41355;50.390;19.096;2023-01-28T16:32:42;20.77;;;10.30;;
55493;SDS011;41355;50.390;19.096;2023-01-28T16:35:11;58.63;;;16.27;;
55493;SDS011;41355;50.390;19.096;2023-01-28T16:37:57;54.75;;;15.55;;
55493;SDS011;41355;50.390;19.096;2023-01-28T16:40:24;44.38;;;13.27;;
55493;SDS011;41355;50.390;19.096;2023-01-28T16:42:53;55.88;;;17.70;;
55493;SDS011;41355;50.390;19.096;2023-01-28T16:45:21;29.83;;;9.90;;
55493;SDS011;41355;50.390;19.096;2023-01-28T16:47:48;48.08;;;14.15;;
55493;SDS011;41355;50.390;19.096;2023-01-28T16:50:16;33.67;;;12.48;;
55493;SDS011;41355;50.390;19.096;2023-01-28T16:52:43;28.00;;;9.93;;
55493;SDS011;41355;50.390;19.096;2023-01-28T16:55:13;45.20;;;14.25;;
55493;SDS011;41355;50.390;19.096;2023-01-28T16:57:40;55.80;;;15.93;;